Terminal Aerodrome Forecast
Issued by NWS Bismarck, ND

Home | Current Version | Previous Version | Text Only | Print | Product List | Glossary On
Versions: 1 2 3 4 5 6 7 8 9 10 11 12 13 14 15 16 17
000
FTUS43 KBIS 270700 AAA
TAFBIS
TAF AMD
KBIS 270708Z 2707/2806 VRB03KT P6SM SCT002 OVC060
     FM270830 22003KT P6SM BKN035 OVC060
      TEMPO 2709/2713 BKN025 OVC035
     FM271300 25004KT P6SM BKN035
     FM271500 26006KT P6SM FEW030 SCT200
     FM271900 24005KT P6SM FEW020 BKN080 OVC100
     FM280300 36005KT P6SM BKN035 OVC090=

USA.gov is the U.S. government's official web portal to all federal, state and local government web resources and services.